Time;durP1;ratioP1;P1;durP2;ratioP2;P2;SDS_P1;SDS_P2;PMS_P1;PMS_P2;Temp;Humidity;BMP_temperature;BMP_pressure;BME280_temperature;BME280_humidity;BME280_pressure;Samples;Min_cycle;Max_cycle;Signal;HPM_P1;HPM_P2
2021/10/07 00:00:20;;;;;;;0.55;0.55;;;;;;;11.39;65.18;101919.63;688278;28;46324;-67
2021/10/07 00:00:41;;;;;;;0.50;0.50;;;;;;;11.36;65.06;101920.78;689725;28;1810;-67
2021/10/07 00:01:03;;;;;;;0.40;0.40;;;;;;;11.40;65.14;101924.06;687263;28;43261;-67
2021/10/07 00:01:24;;;;;;;0.40;0.40;;;;;;;11.40;64.88;101919.47;689017;28;22412;-67
2021/10/07 00:01:46;;;;;;;0.50;0.50;;;;;;;11.41;65.20;101923.03;687600;28;45259;-67
2021/10/07 00:02:07;;;;;;;0.50;0.50;;;;;;;11.39;64.90;101928.59;688847;28;24338;-67
2021/10/07 00:02:28;;;;;;;0.50;0.50;;;;;;;11.41;65.13;101928.44;688749;28;20756;-67
2021/10/07 00:02:50;;;;;;;0.40;0.40;;;;;;;11.37;64.83;101919.78;688822;28;22231;-67
2021/10/07 00:03:11;;;;;;;0.40;0.40;;;;;;;11.38;64.76;101926.91;687893;28;45295;-67
2021/10/07 00:03:32;;;;;;;0.55;0.55;;;;;;;11.38;65.15;101928.75;689064;28;23451;-68
2021/10/07 00:03:53;;;;;;;0.47;0.47;;;;;;;11.36;64.99;101927.06;688853;28;23702;-67
2021/10/07 00:04:15;;;;;;;0.40;0.40;;;;;;;11.34;65.14;101931.75;688967;28;22246;-67
2021/10/07 00:04:36;;;;;;;0.40;0.40;;;;;;;11.33;65.17;101929.19;688024;28;46296;-67
2021/10/07 00:04:57;;;;;;;0.57;0.57;;;;;;;11.30;65.10;101929.50;688578;28;22389;-67
2021/10/07 00:05:18;;;;;;;0.50;0.50;;;;;;;11.28;64.95;101931.53;688359;28;23279;-67
2021/10/07 00:05:41;;;;;;;0.40;0.40;;;;;;;11.24;64.90;101928.28;688672;28;23477;-67
2021/10/07 00:06:02;;;;;;;0.40;0.40;;;;;;;11.23;64.90;101929.28;685677;28;111939;-67
2021/10/07 00:06:23;;;;;;;0.50;0.50;;;;;;;11.23;65.31;101931.13;688847;28;21524;-67
2021/10/07 00:06:45;;;;;;;0.50;0.50;;;;;;;11.22;65.26;101932.97;691623;28;21948;-67
2021/10/07 00:07:06;;;;;;;0.50;0.50;;;;;;;11.22;65.41;101932.13;691200;28;45248;-67
2021/10/07 00:07:27;;;;;;;0.30;0.30;;;;;;;11.16;65.35;101929.03;694047;28;22394;-67
2021/10/07 00:07:49;;;;;;;0.50;0.50;;;;;;;11.20;65.31;101936.84;693441;28;22421;-67
2021/10/07 00:08:10;;;;;;;0.60;0.60;;;;;;;11.20;65.11;101939.56;693231;28;44437;-67
2021/10/07 00:08:32;;;;;;;0.50;0.50;;;;;;;11.17;65.02;101938.00;693116;28;22428;-67
2021/10/07 00:08:53;;;;;;;0.50;0.50;;;;;;;11.16;65.21;101939.84;689064;28;23483;-67
2021/10/07 00:09:15;;;;;;;0.40;0.40;;;;;;;11.15;65.16;101938.16;688739;28;23245;-67
2021/10/07 00:09:38;;;;;;;0.50;0.50;;;;;;;11.15;65.01;101937.31;687785;28;46359;-67
2021/10/07 00:09:59;;;;;;;0.40;0.40;;;;;;;11.16;65.06;101947.13;686695;28;69526;-67
2021/10/07 00:10:20;;;;;;;0.50;0.50;;;;;;;11.14;65.27;101936.47;689079;28;21490;-67
2021/10/07 00:10:42;;;;;;;0.40;0.40;;;;;;;11.13;65.38;101940.16;689254;28;44397;-68
2021/10/07 00:11:03;;;;;;;0.50;0.50;;;;;;;11.14;65.16;101944.56;686803;28;66274;-67
2021/10/07 00:11:24;;;;;;;0.50;0.50;;;;;;;11.14;65.37;101944.56;688780;28;23419;-67
2021/10/07 00:11:45;;;;;;;0.40;0.40;;;;;;;11.14;65.25;101941.00;689019;28;21544;-67
2021/10/07 00:12:08;;;;;;;0.30;0.30;;;;;;;11.14;65.36;101943.69;688830;28;21536;-67
2021/10/07 00:12:29;;;;;;;0.52;0.52;;;;;;;11.14;65.26;101941.88;687323;28;69103;-67
2021/10/07 00:12:50;;;;;;;0.60;0.60;;;;;;;11.14;65.15;101939.16;689067;28;24351;-67
2021/10/07 00:13:12;;;;;;;0.50;0.50;;;;;;;11.16;65.33;101945.25;688954;28;21565;-68
2021/10/07 00:13:34;;;;;;;0.40;0.40;;;;;;;11.15;65.35;101942.72;689122;28;22210;-68
2021/10/07 00:13:55;;;;;;;0.40;0.40;;;;;;;11.18;65.33;101943.25;688238;28;46372;-68
2021/10/07 00:14:16;;;;;;;0.60;0.60;;;;;;;11.19;65.28;101938.72;688696;28;22583;-68
2021/10/07 00:14:37;;;;;;;0.57;0.57;;;;;;;11.19;65.06;101938.72;689248;28;20717;-68
2021/10/07 00:14:59;;;;;;;0.50;0.50;;;;;;;11.22;64.99;101941.09;688518;28;22415;-68
2021/10/07 00:15:20;;;;;;;0.40;0.40;;;;;;;11.22;65.02;101951.91;688114;28;46308;-68
2021/10/07 00:15:41;;;;;;;0.60;0.60;;;;;;;11.22;65.41;101932.13;688161;28;46141;-68
2021/10/07 00:16:03;;;;;;;0.60;0.60;;;;;;;11.25;65.10;101938.06;688149;28;42441;-68
2021/10/07 00:16:25;;;;;;;0.60;0.60;;;;;;;11.26;65.21;101944.34;690068;28;10374;-68
2021/10/07 00:16:46;;;;;;;0.47;0.47;;;;;;;11.25;65.36;101938.06;686587;28;46551;-68
2021/10/07 00:17:07;;;;;;;0.47;0.47;;;;;;;11.29;65.19;101946.75;688367;28;22395;-68
2021/10/07 00:17:28;;;;;;;0.50;0.50;;;;;;;11.29;65.49;101938.66;688655;28;21715;-68
2021/10/07 00:17:50;;;;;;;0.60;0.60;;;;;;;11.27;65.29;101935.22;688072;28;24169;-68
2021/10/07 00:18:11;;;;;;;0.40;0.40;;;;;;;11.29;65.52;101938.66;687699;28;47024;-68
2021/10/07 00:18:37;;;;;;;0.40;0.40;;;;;;;11.26;65.49;101938.94;688140;28;22488;-68
2021/10/07 00:18:59;;;;;;;0.60;0.60;;;;;;;11.27;65.60;101941.50;684593;28;137566;-68
2021/10/07 00:19:20;;;;;;;0.50;0.50;;;;;;;11.27;65.62;101941.50;687613;28;44216;-68
2021/10/07 00:19:41;;;;;;;0.50;0.50;;;;;;;11.25;65.54;101939.94;688524;28;23491;-68
2021/10/07 00:20:03;;;;;;;0.40;0.40;;;;;;;11.26;65.64;101941.66;687927;28;22407;-68
2021/10/07 00:20:25;;;;;;;0.50;0.50;;;;;;;11.25;65.82;101943.50;687654;28;44404;-68
2021/10/07 00:20:48;;;;;;;0.60;0.60;;;;;;;11.25;65.92;101938.06;687998;28;46301;-67
2021/10/07 00:21:10;;;;;;;0.55;0.55;;;;;;;11.23;65.66;101944.66;688080;28;69321;-68
2021/10/07 00:21:31;;;;;;;0.40;0.40;;;;;;;11.23;65.42;101950.91;688788;28;45260;-68
2021/10/07 00:21:53;;;;;;;0.57;0.57;;;;;;;11.22;65.37;101942.94;689485;28;23567;-68
2021/10/07 00:22:14;;;;;;;0.60;0.60;;;;;;;11.22;65.33;101940.25;688835;28;46634;-68
2021/10/07 00:22:38;;;;;;;0.50;0.50;;;;;;;11.20;65.42;101944.97;687773;28;22063;-68
2021/10/07 00:22:59;;;;;;;0.43;0.43;;;;;;;11.17;65.49;101944.28;686103;28;91955;-68
2021/10/07 00:23:25;;;;;;;0.50;0.50;;;;;;;11.14;65.22;101951.81;688585;28;21528;-68
2021/10/07 00:24:00;;;;;;;0.60;0.60;;;;;;;11.14;65.46;101947.28;684858;28;136422;-68
2021/10/07 00:24:21;;;;;;;0.50;0.50;;;;;;;11.12;65.57;101948.41;684860;28;135576;-68
2021/10/07 00:24:44;;;;;;;0.50;0.50;;;;;;;11.12;65.27;101951.13;691444;28;22427;-67
2021/10/07 00:25:07;;;;;;;0.50;0.50;;;;;;;11.12;65.58;101945.72;689585;28;46574;-67
2021/10/07 00:25:28;;;;;;;0.50;0.50;;;;;;;11.13;65.38;101950.13;688923;28;92313;-67
2021/10/07 00:25:50;;;;;;;0.50;0.50;;;;;;;11.12;65.48;101949.25;691100;28;23756;-68
2021/10/07 00:26:12;;;;;;;0.40;0.40;;;;;;;11.10;65.47;101953.97;691207;28;22525;-68
2021/10/07 00:26:33;;;;;;;0.40;0.40;;;;;;;11.08;65.38;101947.88;688159;28;46363;-68
2021/10/07 00:26:54;;;;;;;0.60;0.60;;;;;;;11.08;65.57;101947.88;687899;28;46033;-68
2021/10/07 00:27:16;;;;;;;0.47;0.47;;;;;;;11.08;65.56;101952.41;688774;28;21526;-68
2021/10/07 00:27:38;;;;;;;0.40;0.40;;;;;;;11.07;65.71;101950.72;688473;28;21699;-68
2021/10/07 00:28:07;;;;;;;0.50;0.50;;;;;;;11.05;65.59;101948.19;687280;28;69352;-68
2021/10/07 00:28:31;;;;;;;0.55;0.55;;;;;;;11.03;65.83;101950.16;684529;28;136252;-68
2021/10/07 00:28:56;;;;;;;0.60;0.60;;;;;;;11.03;65.76;101946.63;686102;28;92400;-68
2021/10/07 00:29:39;;;;;;;0.40;0.40;;;;;;;11.01;65.94;101949.47;685401;28;115370;-68
2021/10/07 00:30:03;;;;;;;0.47;0.47;;;;;;;11.02;66.28;101959.28;683706;28;160382;-68
2021/10/07 00:30:25;;;;;;;0.50;0.50;;;;;;;11.02;65.93;101956.59;685846;28;115452;-67
2021/10/07 00:30:46;;;;;;;0.40;0.40;;;;;;;11.05;66.28;101956.28;688376;28;22252;-68
2021/10/07 00:31:15;;;;;;;0.50;0.50;;;;;;;11.05;66.11;101944.59;687989;28;47300;-68
2021/10/07 00:31:38;;;;;;;0.60;0.60;;;;;;;11.04;65.95;101942.94;683563;28;160959;-68
2021/10/07 00:32:03;;;;;;;0.47;0.47;;;;;;;11.05;66.13;101950.88;686512;28;92361;-68
2021/10/07 00:32:27;;;;;;;0.40;0.40;;;;;;;11.05;65.81;101952.72;686224;28;84810;-67
2021/10/07 00:32:54;;;;;;;0.50;0.50;;;;;;;11.06;65.79;101947.16;685877;28;114913;-68
2021/10/07 00:33:21;;;;;;;0.50;0.50;;;;;;;11.06;65.70;101949.88;684686;28;138024;-68
2021/10/07 00:33:55;;;;;;;0.50;0.50;;;;;;;11.03;65.70;101943.91;687082;28;85963;-67
2021/10/07 00:34:23;;;;;;;0.40;0.40;;;;;;;11.05;65.64;101952.72;690012;28;137605;-68
2021/10/07 00:35:03;;;;;;;0.60;0.60;;;;;;;11.06;65.69;101955.28;690189;28;137931;-67
2021/10/07 00:36:15;;;;;;;0.60;0.60;;;;;;;11.08;65.66;101953.28;679679;28;157925;-68
2021/10/07 00:36:56;;;;;;;0.60;0.60;;;;;;;11.08;65.52;101947.00;681136;28;137977;-68
2021/10/07 00:37:28;;;;;;;0.45;0.45;;;;;;;11.09;65.48;101951.44;684650;28;135896;-68
2021/10/07 00:39:08;;;;;;;0.50;0.50;;;;;;;11.08;65.10;101949.72;684623;28;135912;-67
2021/10/07 00:39:29;;;;;;;0.60;0.60;;;;;;;11.05;64.86;101944.59;689057;28;22254;-67
2021/10/07 00:39:52;;;;;;;0.43;0.43;;;;;;;11.04;65.03;101940.22;688920;28;22393;-68
2021/10/07 00:40:13;;;;;;;0.50;0.50;;;;;;;11.05;64.69;101953.59;686801;28;66511;-67
2021/10/07 00:40:34;;;;;;;0.50;0.50;;;;;;;11.05;64.89;101950.00;689752;28;22426;-68
2021/10/07 00:40:55;;;;;;;0.60;0.60;;;;;;;11.02;64.94;101948.47;688119;28;22389;-68
2021/10/07 00:41:17;;;;;;;0.55;0.55;;;;;;;11.01;65.00;101946.78;688411;28;22405;-68
2021/10/07 00:41:40;;;;;;;0.50;0.50;;;;;;;10.98;65.05;101947.91;686477;28;44147;-68
2021/10/07 00:42:01;;;;;;;0.40;0.40;;;;;;;10.98;64.94;101947.91;682490;28;66190;-68
2021/10/07 00:42:23;;;;;;;0.50;0.50;;;;;;;10.96;64.71;101954.50;684442;28;22417;-68
2021/10/07 00:42:44;;;;;;;0.60;0.60;;;;;;;10.93;64.92;101949.38;684346;28;45295;-67
2021/10/07 00:43:05;;;;;;;0.50;0.50;;;;;;;10.90;65.29;101953.22;686024;28;23492;-67
2021/10/07 00:43:26;;;;;;;0.60;0.60;;;;;;;10.90;65.42;101949.69;686551;28;23414;-67
2021/10/07 00:43:48;;;;;;;0.50;0.50;;;;;;;10.90;65.16;101950.53;688782;28;23425;-67
2021/10/07 00:44:10;;;;;;;0.50;0.50;;;;;;;10.87;65.49;101949.97;688157;28;45287;-67
2021/10/07 00:44:32;;;;;;;0.57;0.57;;;;;;;10.84;65.43;101939.47;687582;28;69490;-68
2021/10/07 00:44:53;;;;;;;0.50;0.50;;;;;;;10.86;65.57;101949.13;693611;28;22221;-68
2021/10/07 00:45:15;;;;;;;0.50;0.50;;;;;;;10.84;65.49;101948.41;693439;28;21447;-68
2021/10/07 00:45:36;;;;;;;0.70;0.70;;;;;;;10.82;65.64;101945.84;693080;28;46409;-68
2021/10/07 00:46:01;;;;;;;0.60;0.60;;;;;;;10.78;65.78;101933.66;694581;28;21530;-68
2021/10/07 00:46:23;;;;;;;0.50;0.50;;;;;;;10.80;66.25;101950.56;688600;28;114230;-68
2021/10/07 00:46:45;;;;;;;0.50;0.50;;;;;;;10.82;65.96;101943.16;689299;28;46367;-67
2021/10/07 00:47:07;;;;;;;0.60;0.60;;;;;;;10.82;66.29;101947.72;688094;28;45311;-68
2021/10/07 00:47:29;;;;;;;0.60;0.60;;;;;;;10.83;66.32;101946.72;687685;28;46399;-68
2021/10/07 00:47:50;;;;;;;0.70;0.70;;;;;;;10.86;66.39;101945.56;687098;28;46426;-68
2021/10/07 00:48:11;;;;;;;0.50;0.50;;;;;;;10.86;66.58;101948.25;688148;28;23501;-68
2021/10/07 00:48:32;;;;;;;0.50;0.50;;;;;;;10.86;66.25;101949.13;688733;28;21551;-68
2021/10/07 00:48:54;;;;;;;0.60;0.60;;;;;;;10.84;66.32;101948.41;689513;28;6197;-68
2021/10/07 00:49:16;;;;;;;0.52;0.52;;;;;;;10.84;66.42;101950.28;687637;28;47481;-68
2021/10/07 00:49:39;;;;;;;0.60;0.60;;;;;;;10.79;66.29;101939.91;687968;28;46353;-68
2021/10/07 00:50:01;;;;;;;0.50;0.50;;;;;;;10.79;66.34;101946.16;686070;28;68501;-68
2021/10/07 00:50:23;;;;;;;0.60;0.60;;;;;;;10.77;66.06;101945.47;687974;28;69238;-68
2021/10/07 00:50:45;;;;;;;0.57;0.57;;;;;;;10.77;66.33;101947.31;688077;28;45243;-68
2021/10/07 00:51:06;;;;;;;0.50;0.50;;;;;;;10.76;66.38;101951.84;689083;28;23418;-68
2021/10/07 00:51:28;;;;;;;0.50;0.50;;;;;;;10.75;66.22;101949.31;688972;28;23502;-68
2021/10/07 00:51:51;;;;;;;0.60;0.60;;;;;;;10.75;66.30;101952.00;687156;28;67513;-68
2021/10/07 00:52:15;;;;;;;0.60;0.60;;;;;;;10.74;66.47;101945.75;686986;28;69425;-68
2021/10/07 00:52:36;;;;;;;0.50;0.50;;;;;;;10.76;66.35;101945.63;686105;28;92407;-68
2021/10/07 00:52:57;;;;;;;0.50;0.50;;;;;;;10.76;66.56;101951.00;688295;28;45267;-67
2021/10/07 00:53:20;;;;;;;0.60;0.60;;;;;;;10.77;66.26;101950.03;688153;28;21476;-68
2021/10/07 00:53:41;;;;;;;0.80;0.80;;;;;;;10.78;66.36;101957.13;686979;28;67541;-68
2021/10/07 00:54:03;;;;;;;0.60;0.60;;;;;;;10.77;66.44;101950.03;688452;28;23486;-68
2021/10/07 00:54:25;;;;;;;0.50;0.50;;;;;;;10.78;66.35;101946.31;689338;28;1074;-68
2021/10/07 00:54:50;;;;;;;0.47;0.47;;;;;;;10.79;66.08;101956.13;687881;28;46365;-68
2021/10/07 00:55:13;;;;;;;0.70;0.70;;;;;;;10.80;66.15;101961.38;684604;28;115624;-68
2021/10/07 00:55:35;;;;;;;0.63;0.63;;;;;;;10.80;66.30;101949.72;687678;28;67533;-68
2021/10/07 00:56:00;;;;;;;0.60;0.60;;;;;;;10.82;66.03;101955.81;688886;28;21325;-68
2021/10/07 00:56:22;;;;;;;0.50;0.50;;;;;;;10.83;66.42;101957.53;684932;28;115221;-68
2021/10/07 00:56:43;;;;;;;0.70;0.70;;;;;;;10.84;66.07;101951.13;688561;28;22371;-68
2021/10/07 00:57:06;;;;;;;0.60;0.60;;;;;;;10.86;65.83;101959.06;687337;28;46133;-68
2021/10/07 00:57:28;;;;;;;0.50;0.50;;;;;;;10.87;65.73;101958.94;687035;28;67480;-68
2021/10/07 00:57:49;;;;;;;0.60;0.60;;;;;;;10.86;65.99;101959.06;687447;28;44422;-68
2021/10/07 00:58:10;;;;;;;0.60;0.60;;;;;;;10.88;65.77;101967.88;688402;28;22229;-68
2021/10/07 00:58:31;;;;;;;0.80;0.80;;;;;;;10.88;65.62;101960.63;688654;28;6498;-68
2021/10/07 00:58:53;;;;;;;0.57;0.57;;;;;;;10.88;65.64;101968.75;686147;28;20818;-68
2021/10/07 00:59:15;;;;;;;0.40;0.40;;;;;;;10.89;65.79;101964.19;684928;28;44344;-68
2021/10/07 00:59:38;;;;;;;0.43;0.43;;;;;;;10.90;65.60;101965.91;685970;28;13969;-68
2021/10/07 01:00:00;;;;;;;0.60;0.60;;;;;;;10.90;65.51;101968.59;685032;28;23460;-69
2021/10/07 01:00:21;;;;;;;0.50;0.50;;;;;;;10.89;65.46;101958.78;687040;28;22258;-68
2021/10/07 01:00:43;;;;;;;0.50;0.50;;;;;;;10.86;65.18;101961.78;688601;28;22420;-68
2021/10/07 01:01:04;;;;;;;0.40;0.40;;;;;;;10.88;65.13;101971.44;687517;28;88181;-68
2021/10/07 01:01:25;;;;;;;0.50;0.50;;;;;;;10.88;64.99;101967.88;689673;28;21538;-68
2021/10/07 01:01:46;;;;;;;0.50;0.50;;;;;;;10.87;64.95;101966.19;689695;28;22401;-68
2021/10/07 01:02:09;;;;;;;0.50;0.50;;;;;;;10.87;65.22;101966.19;689670;28;21521;-68
2021/10/07 01:02:30;;;;;;;0.40;0.40;;;;;;;10.85;64.99;101963.63;688305;28;67383;-67
2021/10/07 01:02:51;;;;;;;0.40;0.40;;;;;;;10.86;65.13;101964.47;688411;28;45309;-68
2021/10/07 01:03:12;;;;;;;0.50;0.50;;;;;;;10.82;64.90;101964.78;687870;28;46113;-68
2021/10/07 01:03:35;;;;;;;0.50;0.50;;;;;;;10.82;64.83;101967.47;687231;28;44363;-68
2021/10/07 01:03:56;;;;;;;0.40;0.40;;;;;;;10.79;64.95;101967.78;687375;28;70238;-67
2021/10/07 01:04:17;;;;;;;0.40;0.40;;;;;;;10.77;64.91;101961.69;693915;28;22064;-68
2021/10/07 01:04:40;;;;;;;0.50;0.50;;;;;;;10.80;64.85;101969.50;694202;28;22388;-68
2021/10/07 01:05:01;;;;;;;0.52;0.52;;;;;;;10.80;65.13;101969.50;692318;28;45272;-68
2021/10/07 01:05:22;;;;;;;0.50;0.50;;;;;;;10.78;64.96;101968.78;694071;28;22404;-68
2021/10/07 01:05:43;;;;;;;0.30;0.30;;;;;;;10.79;65.04;101973.19;693554;28;23472;-68
2021/10/07 01:06:04;;;;;;;0.40;0.40;;;;;;;10.79;65.23;101967.78;693450;28;22439;-68
2021/10/07 01:06:26;;;;;;;0.50;0.50;;;;;;;10.80;64.88;101969.50;688125;28;21115;-67
2021/10/07 01:06:49;;;;;;;0.47;0.47;;;;;;;10.80;64.88;101969.50;687533;28;46344;-67
2021/10/07 01:07:11;;;;;;;0.40;0.40;;;;;;;10.78;64.82;101965.22;688836;28;987;-67
2021/10/07 01:07:32;;;;;;;0.40;0.40;;;;;;;10.79;65.07;101966.94;687552;28;45284;-68
2021/10/07 01:07:54;;;;;;;0.50;0.50;;;;;;;10.79;64.98;101961.53;687786;28;46386;-67
2021/10/07 01:08:15;;;;;;;0.40;0.40;;;;;;;10.77;64.83;101963.53;687485;28;45181;-67
2021/10/07 01:08:37;;;;;;;0.40;0.40;;;;;;;10.77;64.73;101963.53;688608;28;22393;-68
2021/10/07 01:08:58;;;;;;;0.30;0.30;;;;;;;10.77;64.89;101971.66;688767;28;23436;-68
2021/10/07 01:09:20;;;;;;;0.40;0.40;;;;;;;10.72;64.85;101966.69;687836;28;46315;-68
2021/10/07 01:09:42;;;;;;;0.47;0.47;;;;;;;10.72;64.98;101968.50;688091;28;46304;-68
2021/10/07 01:10:03;;;;;;;0.40;0.40;;;;;;;10.70;64.78;101967.81;687887;28;23461;-67
2021/10/07 01:10:24;;;;;;;0.40;0.40;;;;;;;10.66;64.77;101961.00;688983;28;22407;-68
2021/10/07 01:10:46;;;;;;;0.40;0.40;;;;;;;10.66;65.04;101967.28;687290;28;46788;-68
2021/10/07 01:11:08;;;;;;;0.50;0.50;;;;;;;10.66;64.91;101969.09;688917;28;22277;-68
2021/10/07 01:11:29;;;;;;;0.40;0.40;;;;;;;10.63;64.79;101968.41;687894;28;46406;-69
2021/10/07 01:11:50;;;;;;;0.35;0.35;;;;;;;10.62;64.83;101972.09;688941;28;23418;-68
2021/10/07 01:12:12;;;;;;;0.30;0.30;;;;;;;10.61;65.18;101972.25;688890;28;21319;-68
2021/10/07 01:12:34;;;;;;;0.47;0.47;;;;;;;10.59;65.24;101974.25;687675;28;45125;-68
2021/10/07 01:12:55;;;;;;;0.50;0.50;;;;;;;10.54;65.24;101965.75;687742;28;47752;-68
2021/10/07 01:13:17;;;;;;;0.40;0.40;;;;;;;10.53;65.15;101967.59;688381;28;22459;-68
2021/10/07 01:13:38;;;;;;;0.40;0.40;;;;;;;10.51;65.46;101968.75;687909;28;44412;-68
2021/10/07 01:14:01;;;;;;;0.38;0.38;;;;;;;10.49;65.25;101965.34;688921;28;23405;-68
2021/10/07 01:14:33;;;;;;;0.50;0.50;;;;;;;10.49;65.44;101966.19;686937;28;69589;-67
2021/10/07 01:14:54;;;;;;;0.40;0.40;;;;;;;10.46;65.81;101966.47;684456;28;137419;-67
2021/10/07 01:15:17;;;;;;;0.40;0.40;;;;;;;10.44;65.48;101965.78;688550;28;22249;-67
2021/10/07 01:15:41;;;;;;;0.35;0.35;;;;;;;10.42;65.66;101963.22;687061;28;69492;-67
2021/10/07 01:16:02;;;;;;;0.50;0.50;;;;;;;10.39;65.74;101968.91;685872;28;90405;-67
2021/10/07 01:16:23;;;;;;;0.40;0.40;;;;;;;10.41;65.54;101966.06;690304;28;21488;-68
2021/10/07 01:16:45;;;;;;;0.35;0.35;;;;;;;10.37;66.07;101968.19;689010;28;22424;-68
2021/10/07 01:17:06;;;;;;;0.40;0.40;;;;;;;10.38;66.12;101969.06;687864;28;44430;-68
2021/10/07 01:17:29;;;;;;;0.50;0.50;;;;;;;10.36;66.19;101971.03;688292;28;22435;-68
2021/10/07 01:17:50;;;;;;;0.50;0.50;;;;;;;10.33;65.99;101956.00;686484;28;69455;-68
2021/10/07 01:18:22;;;;;;;0.50;0.50;;;;;;;10.36;66.36;101974.59;688305;28;14150;-68
2021/10/07 01:18:43;;;;;;;0.40;0.40;;;;;;;10.32;65.91;101972.31;684639;28;104156;-68
2021/10/07 01:19:04;;;;;;;0.40;0.40;;;;;;;10.34;65.83;101973.88;688537;28;23471;-69
2021/10/07 01:19:27;;;;;;;0.43;0.43;;;;;;;10.33;66.12;101968.63;688593;28;22387;-68
2021/10/07 01:19:51;;;;;;;0.40;0.40;;;;;;;10.31;66.16;101973.28;688252;28;47171;-68
2021/10/07 01:20:17;;;;;;;0.40;0.40;;;;;;;10.33;65.93;101982.13;683713;28;133946;-68
2021/10/07 01:20:38;;;;;;;0.50;0.50;;;;;;;10.32;65.98;101975.00;685684;28;115365;-67
2021/10/07 01:20:59;;;;;;;0.50;0.50;;;;;;;10.32;66.01;101975.00;687481;28;44398;-67
2021/10/07 01:21:21;;;;;;;0.50;0.50;;;;;;;10.32;66.11;101981.25;688681;28;22408;-67
2021/10/07 01:21:42;;;;;;;0.40;0.40;;;;;;;10.29;65.97;101976.13;688084;28;46316;-67
2021/10/07 01:22:03;;;;;;;0.40;0.40;;;;;;;10.30;65.88;101972.44;688269;28;21567;-67
2021/10/07 01:22:25;;;;;;;0.60;0.60;;;;;;;10.29;65.98;101978.84;688785;28;23509;-68
2021/10/07 01:22:47;;;;;;;0.50;0.50;;;;;;;10.28;65.88;101978.00;693242;28;47724;-68
2021/10/07 01:23:09;;;;;;;0.40;0.40;;;;;;;10.27;66.06;101981.69;693864;28;5254;-68
2021/10/07 01:23:30;;;;;;;0.35;0.35;;;;;;;10.26;66.10;101981.81;693934;28;23714;-68
2021/10/07 01:23:51;;;;;;;0.50;0.50;;;;;;;10.25;66.08;101970.19;693817;28;23422;-68
2021/10/07 01:24:13;;;;;;;0.50;0.50;;;;;;;10.24;65.97;101978.44;693869;28;23496;-68
2021/10/07 01:24:34;;;;;;;0.40;0.40;;;;;;;10.23;66.46;101976.72;691201;28;70362;-68
2021/10/07 01:24:57;;;;;;;0.40;0.40;;;;;;;10.22;66.27;101977.69;686869;28;44421;-67
2021/10/07 01:25:18;;;;;;;0.50;0.50;;;;;;;10.20;66.09;101977.00;692867;28;44497;-67
2021/10/07 01:25:40;;;;;;;0.57;0.57;;;;;;;10.19;66.42;101976.16;693777;28;23615;-67
2021/10/07 01:26:01;;;;;;;0.50;0.50;;;;;;;10.20;66.40;101979.69;692914;28;35368;-68
2021/10/07 01:26:22;;;;;;;0.40;0.40;;;;;;;10.18;66.49;101971.75;694022;28;23889;-68
2021/10/07 01:26:43;;;;;;;0.40;0.40;;;;;;;10.20;66.65;101974.31;694092;28;24314;-70
2021/10/07 01:27:05;;;;;;;0.50;0.50;;;;;;;10.21;66.78;101982.25;692573;28;23455;-68
2021/10/07 01:27:29;;;;;;;0.50;0.50;;;;;;;10.22;66.77;101981.28;687414;28;46286;-68
2021/10/07 01:27:55;;;;;;;0.40;0.40;;;;;;;10.24;66.70;101978.44;684773;28;116018;-68
2021/10/07 01:28:17;;;;;;;0.40;0.40;;;;;;;10.25;67.01;101983.69;684681;28;136508;-68
2021/10/07 01:28:39;;;;;;;0.60;0.60;;;;;;;10.26;66.98;101977.25;687679;28;44397;-68
2021/10/07 01:29:00;;;;;;;0.57;0.57;;;;;;;10.27;66.85;101981.69;687607;28;47408;-68
2021/10/07 01:29:21;;;;;;;0.50;0.50;;;;;;;10.26;66.87;101976.44;688735;28;23513;-68
2021/10/07 01:29:42;;;;;;;0.43;0.43;;;;;;;10.25;66.99;101972.88;689289;28;20791;-68
2021/10/07 01:30:08;;;;;;;0.50;0.50;;;;;;;10.25;67.35;101967.50;688376;28;22378;-67
2021/10/07 01:30:29;;;;;;;0.50;0.50;;;;;;;10.26;67.17;101979.97;684711;28;138210;-67
2021/10/07 01:30:50;;;;;;;0.50;0.50;;;;;;;10.29;67.18;101981.53;688033;28;22204;-67
2021/10/07 01:31:13;;;;;;;0.40;0.40;;;;;;;10.25;67.21;101969.31;687945;28;23836;-68
2021/10/07 01:31:34;;;;;;;0.40;0.40;;;;;;;10.27;66.92;101976.28;686816;28;69411;-67
2021/10/07 01:31:56;;;;;;;0.50;0.50;;;;;;;10.28;67.09;101980.69;688936;28;21401;-68
2021/10/07 01:32:17;;;;;;;0.40;0.40;;;;;;;10.30;66.95;101985.97;688291;28;45264;-68
2021/10/07 01:32:40;;;;;;;0.40;0.40;;;;;;;10.31;66.73;101976.00;691265;28;21359;-68
2021/10/07 01:33:01;;;;;;;0.30;0.30;;;;;;;10.31;66.65;101976.00;688641;28;67561;-68
2021/10/07 01:33:23;;;;;;;0.53;0.53;;;;;;;10.33;66.93;101983.00;687868;28;44397;-67
2021/10/07 01:33:44;;;;;;;0.60;0.60;;;;;;;10.32;66.63;101977.72;688102;28;46402;-67
2021/10/07 01:34:05;;;;;;;0.50;0.50;;;;;;;10.33;66.41;101980.28;688330;28;23552;-67
2021/10/07 01:34:28;;;;;;;0.40;0.40;;;;;;;10.36;66.54;101979.13;687730;28;45004;-67
2021/10/07 01:34:50;;;;;;;0.40;0.40;;;;;;;10.35;66.31;101980.16;685284;28;67793;-67
2021/10/07 01:35:12;;;;;;;0.55;0.55;;;;;;;10.34;66.20;101981.97;685011;28;47576;-67
2021/10/07 01:35:34;;;;;;;0.50;0.50;;;;;;;10.34;66.31;101978.44;685171;28;69236;-67
2021/10/07 01:35:55;;;;;;;0.40;0.40;;;;;;;10.35;66.11;101988.25;687043;28;23366;-67
2021/10/07 01:36:16;;;;;;;0.40;0.40;;;;;;;10.34;66.14;101971.19;689901;28;22385;-67
2021/10/07 01:36:38;;;;;;;0.40;0.40;;;;;;;10.34;66.04;101986.53;688767;28;22338;-67
2021/10/07 01:36:59;;;;;;;0.60;0.60;;;;;;;10.34;66.03;101981.13;690612;28;44902;-67
2021/10/07 01:37:20;;;;;;;0.50;0.50;;;;;;;10.33;66.34;101979.44;690683;28;22333;-67
2021/10/07 01:37:42;;;;;;;0.50;0.50;;;;;;;10.33;66.25;101987.53;689916;28;46344;-67
2021/10/07 01:38:05;;;;;;;0.40;0.40;;;;;;;10.31;66.33;101984.94;690250;28;46144;-67
2021/10/07 01:38:26;;;;;;;0.50;0.50;;;;;;;10.27;66.26;101976.28;688915;28;36090;-67
2021/10/07 01:38:47;;;;;;;0.50;0.50;;;;;;;10.29;66.21;101979.69;689858;28;21576;-67
2021/10/07 01:39:08;;;;;;;0.45;0.45;;;;;;;10.29;66.19;101986.94;689885;28;22378;-67
2021/10/07 01:39:33;;;;;;;0.40;0.40;;;;;;;10.29;66.63;101986.94;689609;28;24305;-67
2021/10/07 01:39:54;;;;;;;0.50;0.50;;;;;;;10.25;66.68;101980.97;686129;28;115094;-67
2021/10/07 01:40:15;;;;;;;0.50;0.50;;;;;;;10.27;66.33;101983.53;687206;28;22198;-67
2021/10/07 01:40:37;;;;;;;0.50;0.50;;;;;;;10.28;66.73;101979.81;687849;28;22460;-67
2021/10/07 01:40:59;;;;;;;0.40;0.40;;;;;;;10.28;66.87;101979.81;686852;28;45290;-67
2021/10/07 01:41:20;;;;;;;0.50;0.50;;;;;;;10.29;66.87;101981.53;687719;28;46041;-67
2021/10/07 01:41:41;;;;;;;0.70;0.70;;;;;;;10.31;66.61;101978.69;688314;28;23371;-67
2021/10/07 01:42:03;;;;;;;0.50;0.50;;;;;;;10.32;66.70;101973.16;688519;28;23423;-67
2021/10/07 01:42:26;;;;;;;0.52;0.52;;;;;;;10.33;66.85;101984.81;687709;28;44410;-68
2021/10/07 01:42:47;;;;;;;0.55;0.55;;;;;;;10.34;66.90;101986.53;687504;28;69340;-67
2021/10/07 01:43:09;;;;;;;0.60;0.60;;;;;;;10.34;66.94;101984.69;688729;28;21560;-67
2021/10/07 01:43:31;;;;;;;0.70;0.70;;;;;;;10.37;66.62;101976.28;688057;28;45884;-67
2021/10/07 01:43:55;;;;;;;0.50;0.50;;;;;;;10.37;66.86;101984.38;687991;28;45273;-67
2021/10/07 01:44:17;;;;;;;0.50;0.50;;;;;;;10.39;66.70;101984.25;687864;28;93542;-67
2021/10/07 01:44:42;;;;;;;0.60;0.60;;;;;;;10.41;66.64;101985.81;688289;28;37868;-67
2021/10/07 01:45:04;;;;;;;0.70;0.70;;;;;;;10.44;66.66;101976.59;687451;28;43760;-67
2021/10/07 01:45:25;;;;;;;0.60;0.60;;;;;;;10.44;66.42;101984.69;687943;28;45251;-67
2021/10/07 01:45:48;;;;;;;0.60;0.60;;;;;;;10.44;66.70;101982.81;688401;28;4193;-67
2021/10/07 01:46:09;;;;;;;0.60;0.60;;;;;;;10.45;66.64;101981.84;686694;28;67349;-67
2021/10/07 01:46:30;;;;;;;0.52;0.52;;;;;;;10.46;66.68;101975.41;688495;28;22430;-67
2021/10/07 01:46:51;;;;;;;0.70;0.70;;;;;;;10.46;66.82;101974.56;688280;28;21522;-67
2021/10/07 01:47:13;;;;;;;0.57;0.57;;;;;;;10.46;66.57;101970.00;688151;28;22542;-67